Felix-Klein-Gymnasium, Gttingen, 150m NN
Donnes mto: Actuelle Sonntag, 18.02.2018 18:15
Date Horaire Temp. E. Hum. E. P.atmo. Pluie Vent Direction Direction Ensoleilleme P. de rose Temp au vent Rafales
18.02.2018 18:15 3,4 C 67 % 1024,4 hPa 0,0 mm 3,5 km/h (1 Bft) E-SE 107 0 min -2,1 C 3,4 C 8,0 km/h (2 Bft)
18.02.2018 18:00 3,6 C 66 % 1024,4 hPa 0,0 mm 5,4 km/h (1 Bft) E-SE 102 0 min -2,1 C 2,3 C 11,3 km/h (2 Bft)
18.02.2018 17:45 3,8 C 65 % 1024,6 hPa 0,0 mm 3,9 km/h (1 Bft) E-SE 114 0 min -2,2 C 3,8 C 11,3 km/h (2 Bft)
18.02.2018 17:30 3,9 C 64 % 1024,5 hPa 0,0 mm 6,2 km/h (2 Bft) E-SE 122 0 min -2,3 C 2,4 C 14,5 km/h (3 Bft)
18.02.2018 17:15 4,1 C 64 % 1024,6 hPa 0,0 mm 8,1 km/h (2 Bft) S-SE 149 0 min -2,1 C 2,1 C 14,5 km/h (3 Bft)
18.02.2018 17:00 4,4 C 64 % 1024,6 hPa 0,0 mm 9,9 km/h (2 Bft) E-SE 117 0 min -1,8 C 2,0 C 17,7 km/h (3 Bft)
18.02.2018 16:45 4,8 C 62 % 1024,6 hPa 0,0 mm 9,4 km/h (2 Bft) S-SE 153 0 min -1,9 C 2,6 C 17,7 km/h (3 Bft)
18.02.2018 16:30 4,9 C 61 % 1024,7 hPa 0,0 mm 9,5 km/h (2 Bft) SE 126 15 min -2,0 C 2,7 C 17,7 km/h (3 Bft)
18.02.2018 16:15 5,0 C 60 % 1024,8 hPa 0,0 mm 12,0 km/h (2 Bft) SE 129 0 min -2,1 C 2,3 C 22,5 km/h (4 Bft)
18.02.2018 16:00 5,3 C 60 % 1024,7 hPa 0,0 mm 10,7 km/h (2 Bft) SE 129 15 min -1,8 C 2,9 C 20,9 km/h (4 Bft)
18.02.2018 15:45 5,1 C 61 % 1024,8 hPa 0,0 mm 11,4 km/h (2 Bft) E-SE 106 15 min -1,8 C 2,5 C 22,5 km/h (4 Bft)
18.02.2018 15:30 5,3 C 60 % 1024,9 hPa 0,0 mm 9,3 km/h (2 Bft) E-SE 108 15 min -1,8 C 3,2 C 17,7 km/h (3 Bft)
18.02.2018 15:15 5,3 C 61 % 1025,1 hPa 0,0 mm 10,1 km/h (2 Bft) SE 128 15 min -1,6 C 3,0 C 20,9 km/h (4 Bft)
18.02.2018 15:00 5,2 C 60 % 1025,1 hPa 0,0 mm 9,1 km/h (2 Bft) E-SE 113 15 min -1,9 C 3,1 C 22,5 km/h (4 Bft)
18.02.2018 14:45 5,1 C 60 % 1025,3 hPa 0,0 mm 9,3 km/h (2 Bft) E-SE 114 15 min -2,0 C 2,9 C 17,7 km/h (3 Bft)
18.02.2018 14:30 4,9 C 60 % 1025,4 hPa 0,0 mm 10,1 km/h (2 Bft) E-SE 118 15 min -2,2 C 2,5 C 20,9 km/h (4 Bft)
18.02.2018 14:15 4,7 C 60 % 1025,5 hPa 0,0 mm 10,7 km/h (2 Bft) E-SE 117 15 min -2,4 C 2,2 C 20,9 km/h (4 Bft)
18.02.2018 14:00 5,0 C 59 % 1025,7 hPa 0,0 mm 9,1 km/h (2 Bft) E-SE 119 15 min -2,3 C 2,9 C 17,7 km/h (3 Bft)
18.02.2018 13:45 4,7 C 61 % 1025,9 hPa 0,0 mm 9,6 km/h (2 Bft) SE 141 15 min -2,2 C 2,4 C 19,3 km/h (3 Bft)
18.02.2018 13:30 4,9 C 60 % 1026,1 hPa 0,0 mm 8,0 km/h (2 Bft) E-SE 103 15 min -2,2 C 3,0 C 17,7 km/h (3 Bft)
18.02.2018 13:15 4,6 C 60 % 1026,3 hPa 0,0 mm 8,2 km/h (2 Bft) S-SE 149 15 min -2,5 C 2,6 C 17,7 km/h (3 Bft)
18.02.2018 13:00 4,7 C 59 % 1026,4 hPa 0,0 mm 8,1 km/h (2 Bft) E-SE 108 15 min -2,6 C 2,8 C 19,3 km/h (3 Bft)
18.02.2018 12:45 4,2 C 63 % 1026,4 hPa 0,0 mm 11,3 km/h (2 Bft) E 87 15 min -2,2 C 1,4 C 24,1 km/h (4 Bft)
18.02.2018 12:30 3,9 C 64 % 1026,5 hPa 0,0 mm 12,4 km/h (3 Bft) E-SE 110 15 min -2,3 C 0,8 C 27,4 km/h (4 Bft)
18.02.2018 12:15 3,9 C 70 % 1026,7 hPa 0,0 mm 6,7 km/h (2 Bft) E-SE 106 15 min -1,1 C 2,2 C 17,7 km/h (3 Bft)
18.02.2018 12:00 3,3 C 75 % 1026,7 hPa 0,0 mm 3,7 km/h (1 Bft) E-SE 115 15 min -0,7 C 3,3 C 12,9 km/h (3 Bft)
18.02.2018 11:45 2,8 C 80 % 1026,9 hPa 0,0 mm 1,1 km/h (1 Bft) SE 135 15 min -0,3 C 2,8 C 6,4 km/h (2 Bft)
18.02.2018 11:30 2,1 C 82 % 1027,0 hPa 0,0 mm 0,6 km/h (0 Bft) E 98 15 min -0,6 C 2,1 C 4,8 km/h (1 Bft)
18.02.2018 11:15 1,1 C 85 % 1026,9 hPa 0,0 mm 1,1 km/h (1 Bft) E 87 15 min -1,1 C 1,1 C 6,4 km/h (2 Bft)
18.02.2018 11:00 0,4 C 87 % 1026,9 hPa 0,0 mm 0,9 km/h (0 Bft) SE 132 15 min -1,5 C 0,4 C 6,4 km/h (2 Bft)
18.02.2018 10:45 -0,4 C 87 % 1026,8 hPa 0,0 mm 1,4 km/h (1 Bft) E-SE 102 15 min -2,3 C -0,4 C 8,0 km/h (2 Bft)
18.02.2018 10:30 -1,0 C 89 % 1026,9 hPa 0,0 mm 1,7 km/h (1 Bft) E-SE 105 15 min -2,6 C -1,0 C 4,8 km/h (1 Bft)
18.02.2018 10:15 -1,4 C 90 % 1026,9 hPa 0,0 mm 0,1 km/h (0 Bft) E-SE 114 15 min -2,8 C -1,4 C 1,6 km/h (1 Bft)
18.02.2018 10:00 -1,9 C 91 % 1026,8 hPa 0,0 mm 0,1 km/h (0 Bft) E-SE 116 15 min -3,2 C -1,9 C 3,2 km/h (1 Bft)
18.02.2018 09:45 -2,5 C 91 % 1026,9 hPa 0,0 mm 0,3 km/h (0 Bft) E-SE 116 0 min -3,8 C -2,5 C 4,8 km/h (1 Bft)
18.02.2018 09:30 -2,9 C 93 % 1027,0 hPa 0,0 mm 0,1 km/h (0 Bft) E-SE 116 15 min -3,9 C -2,9 C 1,6 km/h (1 Bft)
18.02.2018 09:15 -3,4 C 94 % 1026,9 hPa 0,0 mm 0,6 km/h (0 Bft) E-SE 116 0 min -4,2 C -3,4 C 4,8 km/h (1 Bft)
18.02.2018 09:00 -4,1 C 94 % 1026,9 hPa 0,0 mm 0,0 km/h (0 Bft) E-SE 117 0 min -4,9 C -4,1 C 1,6 km/h (1 Bft)
18.02.2018 08:45 -4,4 C 94 % 1027,0 hPa 0,0 mm 0,9 km/h (0 Bft) E-SE 116 0 min -5,2 C -4,4 C 3,2 km/h (1 Bft)
18.02.2018 08:30 -4,7 C 94 % 1027,0 hPa 0,0 mm 1,2 km/h (1 Bft) E-SE 116 0 min -5,5 C -4,7 C 4,8 km/h (1 Bft)
18.02.2018 08:15 -5,1 C 95 % 1027,0 hPa 0,0 mm 3,2 km/h (1 Bft) E-SE 116 0 min -5,8 C -5,1 C 8,0 km/h (2 Bft)
18.02.2018 08:00 -5,1 C 95 % 1026,9 hPa 0,0 mm 2,3 km/h (1 Bft) SE 125 0 min -5,8 C -5,1 C 4,8 km/h (1 Bft)
18.02.2018 07:45 -5,0 C 95 % 1026,9 hPa 0,0 mm 2,6 km/h (1 Bft) SE 134 0 min -5,7 C -5,0 C 4,8 km/h (1 Bft)
18.02.2018 07:30 -4,9 C 95 % 1026,9 hPa 0,0 mm 1,5 km/h (1 Bft) O-SO 251 0 min -5,6 C -4,9 C 4,8 km/h (1 Bft)
18.02.2018 07:15 -4,8 C 95 % 1026,9 hPa 0,0 mm 0,1 km/h (0 Bft) O 259 0 min -5,5 C -4,8 C 1,6 km/h (1 Bft)
18.02.2018 07:00 -4,7 C 95 % 1026,9 hPa 0,0 mm 1,0 km/h (0 Bft) O 259 0 min -5,4 C -4,7 C 3,2 km/h (1 Bft)
18.02.2018 06:45 -4,6 C 95 % 1026,7 hPa 0,0 mm 0,7 km/h (0 Bft) O 260 0 min -5,3 C -4,6 C 3,2 km/h (1 Bft)
18.02.2018 06:30 -4,4 C 95 % 1026,7 hPa 0,0 mm 1,2 km/h (1 Bft) O 260 0 min -5,1 C -4,4 C 3,2 km/h (1 Bft)
18.02.2018 06:15 -4,4 C 95 % 1026,5 hPa 0,0 mm 0,2 km/h (0 Bft) O 260 0 min -5,1 C -4,4 C 3,2 km/h (1 Bft)
18.02.2018 06:00 -4,3 C 95 % 1026,4 hPa 0,0 mm 0,5 km/h (0 Bft) O 260 0 min -5,0 C -4,3 C 3,2 km/h (1 Bft)
18.02.2018 05:45 -4,3 C 95 % 1026,4 hPa 0,0 mm 1,0 km/h (0 Bft) O 260 0 min -5,0 C -4,3 C 3,2 km/h (1 Bft)
18.02.2018 05:30 -4,2 C 95 % 1026,2 hPa 0,0 mm 0,0 km/h (0 Bft) O 260 0 min -4,9 C -4,2 C 1,6 km/h (1 Bft)
18.02.2018 05:15 -4,1 C 95 % 1026,1 hPa 0,0 mm 0,3 km/h (0 Bft) O 260 0 min -4,8 C -4,1 C 3,2 km/h (1 Bft)
18.02.2018 05:00 -3,9 C 95 % 1026,1 hPa 0,0 mm 0,5 km/h (0 Bft) O 260 0 min -4,6 C -3,9 C 3,2 km/h (1 Bft)
18.02.2018 04:45 -3,9 C 95 % 1026,1 hPa 0,0 mm 2,1 km/h (1 Bft) O 260 0 min -4,6 C -3,9 C 4,8 km/h (1 Bft)
18.02.2018 04:30 -3,8 C 95 % 1026,1 hPa 0,0 mm 0,2 km/h (0 Bft) O 262 0 min -4,5 C -3,8 C 3,2 km/h (1 Bft)
18.02.2018 04:15 -3,7 C 95 % 1026,1 hPa 0,0 mm 0,0 km/h (0 Bft) O 262 0 min -4,4 C -3,7 C 1,6 km/h (1 Bft)
18.02.2018 04:00 -3,6 C 95 % 1026,1 hPa 0,0 mm 1,9 km/h (1 Bft) O 262 0 min -4,3 C -3,6 C 4,8 km/h (1 Bft)
18.02.2018 03:45 -3,4 C 95 % 1026,0 hPa 0,0 mm 1,1 km/h (1 Bft) O-NO 297 0 min -4,1 C -3,4 C 3,2 km/h (1 Bft)
18.02.2018 03:30 -3,2 C 95 % 1026,0 hPa 0,0 mm 1,0 km/h (0 Bft) NO 309 0 min -3,9 C -3,2 C 4,8 km/h (1 Bft)
18.02.2018 03:15 -3,1 C 95 % 1025,9 hPa 0,0 mm 1,6 km/h (1 Bft) NO 308 0 min -3,8 C -3,1 C 4,8 km/h (1 Bft)
18.02.2018 03:00 -3,0 C 95 % 1026,1 hPa 0,0 mm 0,9 km/h (0 Bft) NO 308 0 min -3,7 C -3,0 C 3,2 km/h (1 Bft)
18.02.2018 02:45 -2,9 C 95 % 1025,9 hPa 0,0 mm 0,5 km/h (0 Bft) NO 309 0 min -3,6 C -2,9 C 3,2 km/h (1 Bft)
18.02.2018 02:30 -2,8 C 95 % 1025,9 hPa 0,0 mm 0,1 km/h (0 Bft) NO 309 0 min -3,5 C -2,8 C 1,6 km/h (1 Bft)
18.02.2018 02:15 -2,7 C 95 % 1025,9 hPa 0,0 mm 0,0 km/h (0 Bft) NO 309 0 min -3,4 C -2,7 C 0,0 km/h (0 Bft)
18.02.2018 02:00 -2,6 C 95 % 1025,7 hPa 0,0 mm 0,0 km/h (0 Bft) NO 309 0 min -3,3 C -2,6 C 0,0 km/h (0 Bft)
18.02.2018 01:45 -2,3 C 95 % 1025,6 hPa 0,0 mm 0,0 km/h (0 Bft) NO 308 0 min -3,0 C -2,3 C 0,0 km/h (0 Bft)
18.02.2018 01:30 -2,2 C 95 % 1025,6 hPa 0,0 mm 0,0 km/h (0 Bft) NO 309 0 min -2,9 C -2,2 C 3,2 km/h (1 Bft)
18.02.2018 01:15 -1,9 C 95 % 1025,5 hPa 0,0 mm 0,0 km/h (0 Bft) NO 310 0 min -2,6 C -1,9 C 1,6 km/h (1 Bft)
18.02.2018 01:00 -1,7 C 94 % 1025,3 hPa 0,0 mm 0,0 km/h (0 Bft) NO 311 0 min -2,5 C -1,7 C 1,6 km/h (1 Bft)
18.02.2018 00:45 -1,6 C 94 % 1025,3 hPa 0,0 mm 0,0 km/h (0 Bft) NO 311 0 min -2,4 C -1,6 C 0,0 km/h (0 Bft)
18.02.2018 00:30 -1,6 C 94 % 1025,3 hPa 0,0 mm 0,0 km/h (0 Bft) NO 311 0 min -2,4 C -1,6 C 0,0 km/h (0 Bft)
18.02.2018 00:15 -1,3 C 94 % 1025,2 hPa 0,0 mm 0,0 km/h (0 Bft) NO 311 0 min -2,1 C -1,3 C 0,0 km/h (0 Bft)
18.02.2018 00:00 -1,1 C 93 % 1025,1 hPa 0,0 mm 0,0 km/h (0 Bft) NO 310 0 min -2,1 C -1,1 C 0,0 km/h (0 Bft)
17.02.2018 22:45 -0,3 C 91 % 1024,5 hPa 0,0 mm 0,0 km/h (0 Bft) NO 310 0 min -1,6 C -0,3 C 1,6 km/h (1 Bft)
17.02.2018 22:30 -0,2 C 90 % 1024,3 hPa 0,0 mm 0,0 km/h (0 Bft) NO 310 0 min -1,6 C -0,2 C 1,6 km/h (1 Bft)
17.02.2018 22:15 0,1 C 90 % 1024,1 hPa 0,0 mm 0,2 km/h (0 Bft) NO 310 0 min -1,3 C 0,1 C 3,2 km/h (1 Bft)
17.02.2018 22:00 0,3 C 89 % 1024,0 hPa 0,0 mm 0,0 km/h (0 Bft) NO 310 0 min -1,3 C 0,3 C 0,0 km/h (0 Bft)
17.02.2018 21:45 0,6 C 89 % 1023,8 hPa 0,0 mm 0,8 km/h (0 Bft) NO 310 0 min -1,0 C 0,6 C 4,8 km/h (1 Bft)
17.02.2018 21:30 0,7 C 89 % 1023,8 hPa 0,0 mm 2,5 km/h (1 Bft) NO 310 0 min -0,9 C 0,7 C 6,4 km/h (2 Bft)
17.02.2018 21:15 0,8 C 89 % 1023,7 hPa 0,0 mm 4,3 km/h (1 Bft) NO 310 0 min -0,8 C 0,8 C 9,7 km/h (2 Bft)
17.02.2018 21:00 0,8 C 88 % 1023,5 hPa 0,0 mm 3,1 km/h (1 Bft) NO 313 0 min -1,0 C 0,8 C 6,4 km/h (2 Bft)
17.02.2018 20:45 1,0 C 88 % 1023,5 hPa 0,0 mm 5,2 km/h (1 Bft) NO 319 0 min -0,8 C -0,5 C 9,7 km/h (2 Bft)
17.02.2018 20:30 1,2 C 88 % 1023,5 hPa 0,0 mm 4,0 km/h (1 Bft) O-NO 297 0 min -0,6 C 1,2 C 9,7 km/h (2 Bft)
17.02.2018 20:15 1,2 C 88 % 1023,3 hPa 0,0 mm 0,3 km/h (0 Bft) NO 313 0 min -0,6 C 1,2 C 4,8 km/h (1 Bft)
17.02.2018 20:00 1,2 C 88 % 1023,3 hPa 0,0 mm 0,1 km/h (0 Bft) NO 313 0 min -0,6 C 1,2 C 1,6 km/h (1 Bft)
17.02.2018 19:45 1,3 C 87 % 1023,1 hPa 0,0 mm 0,0 km/h (0 Bft) NO 314 0 min -0,6 C 1,3 C 1,6 km/h (1 Bft)
17.02.2018 19:30 1,6 C 86 % 1023,0 hPa 0,0 mm 0,3 km/h (0 Bft) NO 313 0 min -0,5 C 1,6 C 3,2 km/h (1 Bft)
17.02.2018 19:15 2,0 C 85 % 1022,9 hPa 0,0 mm 0,0 km/h (0 Bft) NO 313 0 min -0,3 C 2,0 C 0,0 km/h (0 Bft)
17.02.2018 19:00 2,2 C 84 % 1022,7 hPa 0,0 mm 4,1 km/h (1 Bft) NO 313 0 min -0,2 C 2,2 C 9,7 km/h (2 Bft)
_ Min-Heure 08:00 13:00 19:00 - 19:15 - - - 08:00 08:00 19:15
Minimum _ -5,1 C 59 % 1022,7 hPa - 0,0 km/h (0 Bft) - - - -5,8 C -5,1 C 0,0 km/h (0 Bft)
_ Max-Heure 15:15 01:15 08:15 19:00 12:30 - - 09:30 19:00 17:45 12:30
Maximum _ 5,3 C 95 % 1027,0 hPa 0,0 mm 12,4 km/h
E-SE (3 Bft)
- - 15 min -0,2 C 3,8 C 27,4 km/h
E-SE (4 Bft)
Moyenne _ 0,1 C 84 % 1025,3 hPa #0,0 mm 3,1 km/h (1 Bft) E-SE - #6:45 h -2,6 C -0,5 C 7,6 km/h (2 Bft)